Terminal Aerodrome Forecast
Issued by NWS

Home | Current Version | Previous Version | Text Only | Print | Product List | Glossary On
Versions: 1 2 3 4 5 6 7 8 9 10 11 12 13 14 15 16
000
FTUS46 KMTR 030542
TAFOAK
TAF
KOAK 030542Z 0306/0412 27010KT P6SM FEW012 SCT250
      TEMPO 0306/0309 BKN012
     FM030900 25008KT P6SM OVC012
     FM031800 28012KT P6SM FEW013 SCT250
     FM032100 28015G21KT P6SM FEW013 SCT250
     FM040300 28010KT P6SM FEW013 SCT250=

USA.gov is the U.S. government's official web portal to all federal, state and local government web resources and services.